sensor_id;sensor_type;location;lat;lon;timestamp;P1;durP1;ratioP1;P2;durP2;ratioP2
47403;SDS011;33157;51.508;4.288;2024-02-21T00:01:24;15.80;;;4.30;;
47403;SDS011;33157;51.508;4.288;2024-02-21T00:06:25;10.57;;;4.13;;
47403;SDS011;33157;51.508;4.288;2024-02-21T00:11:26;17.65;;;4.03;;
47403;SDS011;33157;51.508;4.288;2024-02-21T00:16:26;12.43;;;4.78;;
47403;SDS011;33157;51.508;4.288;2024-02-21T00:21:26;12.48;;;4.25;;
47403;SDS011;33157;51.508;4.288;2024-02-21T00:26:27;12.77;;;3.45;;
47403;SDS011;33157;51.508;4.288;2024-02-21T00:31:27;14.05;;;3.88;;
47403;SDS011;33157;51.508;4.288;2024-02-21T00:36:28;11.50;;;3.95;;
47403;SDS011;33157;51.508;4.288;2024-02-21T00:41:28;15.65;;;3.03;;
47403;SDS011;33157;51.508;4.288;2024-02-21T00:46:28;7.15;;;3.25;;
47403;SDS011;33157;51.508;4.288;2024-02-21T00:51:29;16.33;;;3.40;;
47403;SDS011;33157;51.508;4.288;2024-02-21T00:56:29;9.80;;;3.45;;
47403;SDS011;33157;51.508;4.288;2024-02-21T01:01:30;11.82;;;3.30;;
47403;SDS011;33157;51.508;4.288;2024-02-21T01:06:31;7.45;;;2.88;;
47403;SDS011;33157;51.508;4.288;2024-02-21T01:11:32;11.23;;;4.07;;
47403;SDS011;33157;51.508;4.288;2024-02-21T01:16:32;8.55;;;3.30;;
47403;SDS011;33157;51.508;4.288;2024-02-21T01:21:32;16.15;;;3.58;;
47403;SDS011;33157;51.508;4.288;2024-02-21T01:26:33;14.38;;;3.40;;
47403;SDS011;33157;51.508;4.288;2024-02-21T01:31:34;10.23;;;2.55;;
47403;SDS011;33157;51.508;4.288;2024-02-21T01:36:34;10.95;;;3.08;;
47403;SDS011;33157;51.508;4.288;2024-02-21T01:41:34;11.50;;;3.90;;
47403;SDS011;33157;51.508;4.288;2024-02-21T01:46:35;13.13;;;2.63;;
47403;SDS011;33157;51.508;4.288;2024-02-21T01:51:36;10.32;;;2.70;;
47403;SDS011;33157;51.508;4.288;2024-02-21T01:56:36;9.23;;;3.45;;
47403;SDS011;33157;51.508;4.288;2024-02-21T02:01:37;7.35;;;3.30;;
47403;SDS011;33157;51.508;4.288;2024-02-21T02:06:37;10.95;;;3.50;;
47403;SDS011;33157;51.508;4.288;2024-02-21T02:11:38;7.35;;;3.63;;
47403;SDS011;33157;51.508;4.288;2024-02-21T02:16:39;10.63;;;3.53;;
47403;SDS011;33157;51.508;4.288;2024-02-21T02:21:39;11.13;;;3.80;;
47403;SDS011;33157;51.508;4.288;2024-02-21T02:26:44;7.10;;;3.45;;
47403;SDS011;33157;51.508;4.288;2024-02-21T02:31:44;8.35;;;3.15;;
47403;SDS011;33157;51.508;4.288;2024-02-21T02:36:45;6.03;;;2.75;;
47403;SDS011;33157;51.508;4.288;2024-02-21T02:41:45;9.77;;;3.78;;
47403;SDS011;33157;51.508;4.288;2024-02-21T02:46:45;8.05;;;3.70;;
47403;SDS011;33157;51.508;4.288;2024-02-21T02:51:46;9.30;;;3.80;;
47403;SDS011;33157;51.508;4.288;2024-02-21T02:56:46;10.63;;;4.53;;
47403;SDS011;33157;51.508;4.288;2024-02-21T03:01:47;9.93;;;4.53;;
47403;SDS011;33157;51.508;4.288;2024-02-21T03:06:47;14.20;;;5.47;;
47403;SDS011;33157;51.508;4.288;2024-02-21T03:11:47;15.90;;;5.65;;
47403;SDS011;33157;51.508;4.288;2024-02-21T03:16:48;20.38;;;5.93;;
47403;SDS011;33157;51.508;4.288;2024-02-21T03:21:51;14.82;;;6.63;;
47403;SDS011;33157;51.508;4.288;2024-02-21T03:26:52;14.57;;;7.80;;
47403;SDS011;33157;51.508;4.288;2024-02-21T03:31:53;17.25;;;6.45;;
47403;SDS011;33157;51.508;4.288;2024-02-21T03:36:53;16.15;;;7.05;;
47403;SDS011;33157;51.508;4.288;2024-02-21T03:41:53;16.40;;;6.60;;
47403;SDS011;33157;51.508;4.288;2024-02-21T03:46:54;16.70;;;7.10;;
47403;SDS011;33157;51.508;4.288;2024-02-21T03:51:54;14.20;;;6.28;;
47403;SDS011;33157;51.508;4.288;2024-02-21T03:56:55;14.25;;;6.53;;
47403;SDS011;33157;51.508;4.288;2024-02-21T04:01:55;24.20;;;7.65;;
47403;SDS011;33157;51.508;4.288;2024-02-21T04:06:56;19.55;;;7.35;;
47403;SDS011;33157;51.508;4.288;2024-02-21T04:11:56;17.83;;;6.32;;
47403;SDS011;33157;51.508;4.288;2024-02-21T04:16:57;22.23;;;7.53;;
47403;SDS011;33157;51.508;4.288;2024-02-21T04:21:57;19.23;;;7.05;;
47403;SDS011;33157;51.508;4.288;2024-02-21T04:26:58;15.50;;;6.85;;
47403;SDS011;33157;51.508;4.288;2024-02-21T04:31:58;21.52;;;7.47;;
47403;SDS011;33157;51.508;4.288;2024-02-21T04:36:58;43.22;;;9.15;;
47403;SDS011;33157;51.508;4.288;2024-02-21T04:41:59;30.67;;;8.88;;
47403;SDS011;33157;51.508;4.288;2024-02-21T04:46:59;22.77;;;8.57;;
47403;SDS011;33157;51.508;4.288;2024-02-21T04:52:00;24.67;;;8.35;;
47403;SDS011;33157;51.508;4.288;2024-02-21T04:57:00;24.30;;;8.70;;
47403;SDS011;33157;51.508;4.288;2024-02-21T05:02:02;28.60;;;9.43;;
47403;SDS011;33157;51.508;4.288;2024-02-21T05:07:03;26.08;;;9.10;;
47403;SDS011;33157;51.508;4.288;2024-02-21T05:12:04;25.50;;;8.90;;
47403;SDS011;33157;51.508;4.288;2024-02-21T05:17:04;22.50;;;8.80;;
47403;SDS011;33157;51.508;4.288;2024-02-21T05:22:05;25.35;;;8.82;;
47403;SDS011;33157;51.508;4.288;2024-02-21T05:27:05;23.38;;;9.27;;
47403;SDS011;33157;51.508;4.288;2024-02-21T05:32:06;22.55;;;8.57;;
47403;SDS011;33157;51.508;4.288;2024-02-21T05:37:06;21.20;;;9.23;;
47403;SDS011;33157;51.508;4.288;2024-02-21T05:42:07;27.52;;;10.48;;
47403;SDS011;33157;51.508;4.288;2024-02-21T05:47:07;22.75;;;10.73;;
47403;SDS011;33157;51.508;4.288;2024-02-21T05:52:10;27.50;;;11.38;;
47403;SDS011;33157;51.508;4.288;2024-02-21T05:57:10;22.55;;;9.70;;
47403;SDS011;33157;51.508;4.288;2024-02-21T06:02:11;28.98;;;11.20;;
47403;SDS011;33157;51.508;4.288;2024-02-21T06:07:11;30.20;;;11.30;;
47403;SDS011;33157;51.508;4.288;2024-02-21T06:12:12;27.17;;;10.93;;
47403;SDS011;33157;51.508;4.288;2024-02-21T06:17:12;23.15;;;10.63;;
47403;SDS011;33157;51.508;4.288;2024-02-21T06:22:14;26.90;;;10.63;;
47403;SDS011;33157;51.508;4.288;2024-02-21T06:27:15;29.45;;;11.90;;
47403;SDS011;33157;51.508;4.288;2024-02-21T06:32:16;24.45;;;10.05;;
47403;SDS011;33157;51.508;4.288;2024-02-21T06:37:16;23.52;;;12.05;;
47403;SDS011;33157;51.508;4.288;2024-02-21T06:42:17;24.08;;;10.55;;
47403;SDS011;33157;51.508;4.288;2024-02-21T06:47:17;27.42;;;10.50;;
47403;SDS011;33157;51.508;4.288;2024-02-21T06:52:18;20.10;;;10.32;;
47403;SDS011;33157;51.508;4.288;2024-02-21T06:57:20;21.73;;;10.68;;
47403;SDS011;33157;51.508;4.288;2024-02-21T07:02:20;26.20;;;10.93;;
47403;SDS011;33157;51.508;4.288;2024-02-21T07:07:21;23.60;;;10.63;;
47403;SDS011;33157;51.508;4.288;2024-02-21T07:12:21;19.08;;;10.73;;
47403;SDS011;33157;51.508;4.288;2024-02-21T07:17:21;22.60;;;11.60;;
47403;SDS011;33157;51.508;4.288;2024-02-21T07:22:22;20.38;;;10.27;;
47403;SDS011;33157;51.508;4.288;2024-02-21T07:27:22;25.42;;;11.38;;
47403;SDS011;33157;51.508;4.288;2024-02-21T07:32:23;23.55;;;11.82;;
47403;SDS011;33157;51.508;4.288;2024-02-21T07:37:23;22.02;;;10.95;;
47403;SDS011;33157;51.508;4.288;2024-02-21T07:42:24;24.38;;;11.88;;
47403;SDS011;33157;51.508;4.288;2024-02-21T07:47:24;19.52;;;11.57;;
47403;SDS011;33157;51.508;4.288;2024-02-21T07:52:25;22.10;;;11.55;;
47403;SDS011;33157;51.508;4.288;2024-02-21T07:57:25;22.80;;;10.02;;
47403;SDS011;33157;51.508;4.288;2024-02-21T08:02:26;24.02;;;10.13;;
47403;SDS011;33157;51.508;4.288;2024-02-21T08:07:26;20.90;;;9.65;;
47403;SDS011;33157;51.508;4.288;2024-02-21T08:12:29;22.88;;;10.55;;
47403;SDS011;33157;51.508;4.288;2024-02-21T08:17:29;23.63;;;10.23;;
47403;SDS011;33157;51.508;4.288;2024-02-21T08:22:29;19.27;;;8.82;;
47403;SDS011;33157;51.508;4.288;2024-02-21T08:27:30;15.57;;;8.48;;
47403;SDS011;33157;51.508;4.288;2024-02-21T08:32:30;19.92;;;9.48;;
47403;SDS011;33157;51.508;4.288;2024-02-21T08:37:31;15.98;;;8.00;;
47403;SDS011;33157;51.508;4.288;2024-02-21T08:42:31;14.77;;;9.13;;
47403;SDS011;33157;51.508;4.288;2024-02-21T08:47:32;14.07;;;7.93;;
47403;SDS011;33157;51.508;4.288;2024-02-21T08:52:32;18.50;;;8.82;;
47403;SDS011;33157;51.508;4.288;2024-02-21T08:57:32;17.45;;;8.93;;
47403;SDS011;33157;51.508;4.288;2024-02-21T09:02:39;15.52;;;7.65;;
47403;SDS011;33157;51.508;4.288;2024-02-21T09:07:40;15.43;;;7.72;;
47403;SDS011;33157;51.508;4.288;2024-02-21T09:12:41;15.20;;;7.50;;
47403;SDS011;33157;51.508;4.288;2024-02-21T09:17:41;12.07;;;7.15;;
47403;SDS011;33157;51.508;4.288;2024-02-21T09:22:42;13.68;;;7.93;;
47403;SDS011;33157;51.508;4.288;2024-02-21T09:27:43;11.98;;;6.13;;
47403;SDS011;33157;51.508;4.288;2024-02-21T09:32:44;17.33;;;6.47;;
47403;SDS011;33157;51.508;4.288;2024-02-21T09:37:45;13.10;;;7.30;;
47403;SDS011;33157;51.508;4.288;2024-02-21T09:42:46;14.73;;;6.05;;
47403;SDS011;33157;51.508;4.288;2024-02-21T09:53:25;13.63;;;6.57;;
47403;SDS011;33157;51.508;4.288;2024-02-21T09:58:26;13.77;;;8.10;;
47403;SDS011;33157;51.508;4.288;2024-02-21T10:03:28;13.77;;;7.80;;
47403;SDS011;33157;51.508;4.288;2024-02-21T10:08:28;13.68;;;6.72;;
47403;SDS011;33157;51.508;4.288;2024-02-21T10:13:29;12.27;;;6.80;;
47403;SDS011;33157;51.508;4.288;2024-02-21T10:18:30;15.43;;;7.13;;
47403;SDS011;33157;51.508;4.288;2024-02-21T10:23:46;12.23;;;6.53;;
47403;SDS011;33157;51.508;4.288;2024-02-21T10:28:48;13.88;;;7.10;;
47403;SDS011;33157;51.508;4.288;2024-02-21T10:34:09;13.70;;;6.78;;
47403;SDS011;33157;51.508;4.288;2024-02-21T10:39:09;13.35;;;8.32;;
47403;SDS011;33157;51.508;4.288;2024-02-21T10:44:10;9.52;;;6.15;;
47403;SDS011;33157;51.508;4.288;2024-02-21T10:49:25;11.48;;;5.95;;
47403;SDS011;33157;51.508;4.288;2024-02-21T10:59:46;9.77;;;5.07;;
47403;SDS011;33157;51.508;4.288;2024-02-21T11:04:48;15.25;;;5.32;;
47403;SDS011;33157;51.508;4.288;2024-02-21T11:09:53;15.40;;;5.87;;
47403;SDS011;33157;51.508;4.288;2024-02-21T11:15:05;12.20;;;5.18;;
47403;SDS011;33157;51.508;4.288;2024-02-21T11:20:12;11.82;;;5.68;;
47403;SDS011;33157;51.508;4.288;2024-02-21T11:25:13;10.95;;;4.97;;
47403;SDS011;33157;51.508;4.288;2024-02-21T11:30:26;12.15;;;4.53;;
47403;SDS011;33157;51.508;4.288;2024-02-21T11:35:30;9.48;;;4.68;;
47403;SDS011;33157;51.508;4.288;2024-02-21T11:40:35;9.40;;;4.07;;
47403;SDS011;33157;51.508;4.288;2024-02-21T11:45:39;11.10;;;4.43;;
47403;SDS011;33157;51.508;4.288;2024-02-21T11:50:39;10.52;;;5.13;;
47403;SDS011;33157;51.508;4.288;2024-02-21T11:55:40;11.68;;;4.03;;
47403;SDS011;33157;51.508;4.288;2024-02-21T12:00:40;10.45;;;4.28;;
47403;SDS011;33157;51.508;4.288;2024-02-21T12:05:41;9.55;;;4.22;;
47403;SDS011;33157;51.508;4.288;2024-02-21T12:10:42;9.38;;;3.90;;
47403;SDS011;33157;51.508;4.288;2024-02-21T12:15:48;11.95;;;3.92;;
47403;SDS011;33157;51.508;4.288;2024-02-21T12:20:49;11.45;;;3.97;;
47403;SDS011;33157;51.508;4.288;2024-02-21T12:25:50;15.15;;;4.90;;
47403;SDS011;33157;51.508;4.288;2024-02-21T12:30:54;8.50;;;4.28;;
47403;SDS011;33157;51.508;4.288;2024-02-21T12:35:54;11.95;;;4.30;;
47403;SDS011;33157;51.508;4.288;2024-02-21T12:40:55;9.48;;;3.88;;
47403;SDS011;33157;51.508;4.288;2024-02-21T12:46:00;10.27;;;3.90;;
47403;SDS011;33157;51.508;4.288;2024-02-21T12:51:01;7.53;;;3.42;;
47403;SDS011;33157;51.508;4.288;2024-02-21T12:56:01;10.63;;;4.65;;
47403;SDS011;33157;51.508;4.288;2024-02-21T13:01:02;9.20;;;3.88;;
47403;SDS011;33157;51.508;4.288;2024-02-21T13:06:03;10.25;;;3.70;;
47403;SDS011;33157;51.508;4.288;2024-02-21T13:11:05;12.30;;;3.77;;
47403;SDS011;33157;51.508;4.288;2024-02-21T13:16:06;10.10;;;4.20;;
47403;SDS011;33157;51.508;4.288;2024-02-21T13:21:07;11.45;;;4.20;;
47403;SDS011;33157;51.508;4.288;2024-02-21T13:26:07;10.48;;;3.67;;
47403;SDS011;33157;51.508;4.288;2024-02-21T13:31:08;11.15;;;3.83;;
47403;SDS011;33157;51.508;4.288;2024-02-21T13:36:08;10.60;;;4.53;;
47403;SDS011;33157;51.508;4.288;2024-02-21T13:41:10;9.77;;;3.63;;
47403;SDS011;33157;51.508;4.288;2024-02-21T13:46:10;7.03;;;3.38;;
47403;SDS011;33157;51.508;4.288;2024-02-21T13:51:14;10.02;;;4.40;;
47403;SDS011;33157;51.508;4.288;2024-02-21T13:56:16;6.72;;;3.72;;
47403;SDS011;33157;51.508;4.288;2024-02-21T14:01:17;8.73;;;4.10;;
47403;SDS011;33157;51.508;4.288;2024-02-21T14:06:18;11.63;;;4.95;;
47403;SDS011;33157;51.508;4.288;2024-02-21T14:11:18;8.85;;;4.03;;
47403;SDS011;33157;51.508;4.288;2024-02-21T14:16:19;24.35;;;14.00;;
47403;SDS011;33157;51.508;4.288;2024-02-21T14:21:19;14.23;;;5.90;;
47403;SDS011;33157;51.508;4.288;2024-02-21T14:26:20;45.97;;;27.52;;
47403;SDS011;33157;51.508;4.288;2024-02-21T14:31:21;16.97;;;6.53;;
47403;SDS011;33157;51.508;4.288;2024-02-21T14:36:22;15.43;;;7.95;;
47403;SDS011;33157;51.508;4.288;2024-02-21T14:41:24;12.20;;;6.45;;
47403;SDS011;33157;51.508;4.288;2024-02-21T14:46:24;10.70;;;5.05;;
47403;SDS011;33157;51.508;4.288;2024-02-21T14:51:25;10.48;;;6.07;;
47403;SDS011;33157;51.508;4.288;2024-02-21T14:56:25;11.98;;;6.65;;
47403;SDS011;33157;51.508;4.288;2024-02-21T15:01:26;11.95;;;5.40;;
47403;SDS011;33157;51.508;4.288;2024-02-21T15:11:30;8.85;;;5.40;;
47403;SDS011;33157;51.508;4.288;2024-02-21T15:16:30;10.60;;;4.97;;
47403;SDS011;33157;51.508;4.288;2024-02-21T15:21:30;10.75;;;5.05;;
47403;SDS011;33157;51.508;4.288;2024-02-21T15:26:31;14.13;;;6.22;;
47403;SDS011;33157;51.508;4.288;2024-02-21T15:31:31;11.57;;;5.75;;
47403;SDS011;33157;51.508;4.288;2024-02-21T15:36:32;12.30;;;5.70;;
47403;SDS011;33157;51.508;4.288;2024-02-21T15:41:33;10.15;;;5.00;;
47403;SDS011;33157;51.508;4.288;2024-02-21T15:46:34;12.20;;;4.78;;
47403;SDS011;33157;51.508;4.288;2024-02-21T15:51:36;12.45;;;4.72;;
47403;SDS011;33157;51.508;4.288;2024-02-21T15:56:40;13.68;;;5.07;;
47403;SDS011;33157;51.508;4.288;2024-02-21T16:01:40;14.68;;;6.25;;
47403;SDS011;33157;51.508;4.288;2024-02-21T16:06:42;12.20;;;6.18;;
47403;SDS011;33157;51.508;4.288;2024-02-21T16:17:18;12.73;;;6.47;;
47403;SDS011;33157;51.508;4.288;2024-02-21T16:22:19;11.00;;;5.85;;
47403;SDS011;33157;51.508;4.288;2024-02-21T16:33:34;11.65;;;5.53;;
47403;SDS011;33157;51.508;4.288;2024-02-21T16:44:47;14.65;;;6.18;;
47403;SDS011;33157;51.508;4.288;2024-02-21T16:49:48;11.47;;;6.30;;
47403;SDS011;33157;51.508;4.288;2024-02-21T16:54:49;12.05;;;5.20;;
47403;SDS011;33157;51.508;4.288;2024-02-21T16:59:50;11.55;;;5.57;;
47403;SDS011;33157;51.508;4.288;2024-02-21T17:04:50;11.00;;;5.50;;
47403;SDS011;33157;51.508;4.288;2024-02-21T17:09:53;11.13;;;5.80;;
47403;SDS011;33157;51.508;4.288;2024-02-21T17:14:54;18.45;;;6.63;;
47403;SDS011;33157;51.508;4.288;2024-02-21T17:19:55;11.25;;;5.95;;
47403;SDS011;33157;51.508;4.288;2024-02-21T17:24:55;13.73;;;6.53;;
47403;SDS011;33157;51.508;4.288;2024-02-21T17:29:57;12.85;;;7.05;;
47403;SDS011;33157;51.508;4.288;2024-02-21T17:34:58;19.05;;;7.40;;
47403;SDS011;33157;51.508;4.288;2024-02-21T17:39:58;9.75;;;5.10;;
47403;SDS011;33157;51.508;4.288;2024-02-21T17:44:59;9.77;;;5.13;;
47403;SDS011;33157;51.508;4.288;2024-02-21T17:49:59;9.07;;;5.65;;
47403;SDS011;33157;51.508;4.288;2024-02-21T17:55:00;9.10;;;4.95;;
47403;SDS011;33157;51.508;4.288;2024-02-21T18:05:33;10.88;;;5.80;;
47403;SDS011;33157;51.508;4.288;2024-02-21T18:10:33;8.85;;;5.40;;
47403;SDS011;33157;51.508;4.288;2024-02-21T18:15:34;10.27;;;5.20;;
47403;SDS011;33157;51.508;4.288;2024-02-21T18:26:10;9.32;;;7.22;;
47403;SDS011;33157;51.508;4.288;2024-02-21T18:31:10;9.25;;;5.05;;
47403;SDS011;33157;51.508;4.288;2024-02-21T18:36:11;10.20;;;5.28;;
47403;SDS011;33157;51.508;4.288;2024-02-21T18:41:12;9.90;;;5.07;;
47403;SDS011;33157;51.508;4.288;2024-02-21T18:46:13;9.15;;;4.80;;
47403;SDS011;33157;51.508;4.288;2024-02-21T18:51:14;9.87;;;5.00;;
47403;SDS011;33157;51.508;4.288;2024-02-21T18:56:15;6.80;;;4.93;;
47403;SDS011;33157;51.508;4.288;2024-02-21T19:01:19;7.85;;;4.68;;
47403;SDS011;33157;51.508;4.288;2024-02-21T19:06:20;7.33;;;5.00;;
47403;SDS011;33157;51.508;4.288;2024-02-21T19:11:21;7.65;;;5.10;;
47403;SDS011;33157;51.508;4.288;2024-02-21T19:16:21;9.98;;;5.13;;
47403;SDS011;33157;51.508;4.288;2024-02-21T19:21:22;7.53;;;4.80;;
47403;SDS011;33157;51.508;4.288;2024-02-21T19:26:22;6.53;;;5.10;;
47403;SDS011;33157;51.508;4.288;2024-02-21T19:31:23;7.80;;;5.78;;
47403;SDS011;33157;51.508;4.288;2024-02-21T19:36:23;7.53;;;6.07;;
47403;SDS011;33157;51.508;4.288;2024-02-21T19:46:26;8.15;;;5.45;;
47403;SDS011;33157;51.508;4.288;2024-02-21T19:51:27;7.88;;;6.15;;
47403;SDS011;33157;51.508;4.288;2024-02-21T19:56:28;9.48;;;6.38;;
47403;SDS011;33157;51.508;4.288;2024-02-21T20:01:29;7.05;;;5.80;;
47403;SDS011;33157;51.508;4.288;2024-02-21T20:06:30;7.32;;;5.82;;
47403;SDS011;33157;51.508;4.288;2024-02-21T20:11:31;8.23;;;6.93;;
47403;SDS011;33157;51.508;4.288;2024-02-21T20:16:35;8.18;;;6.50;;
47403;SDS011;33157;51.508;4.288;2024-02-21T20:21:36;9.13;;;6.85;;
47403;SDS011;33157;51.508;4.288;2024-02-21T20:26:39;7.65;;;6.63;;
47403;SDS011;33157;51.508;4.288;2024-02-21T20:31:44;8.93;;;6.78;;
47403;SDS011;33157;51.508;4.288;2024-02-21T20:36:45;9.43;;;6.70;;
47403;SDS011;33157;51.508;4.288;2024-02-21T20:41:46;8.93;;;7.45;;
47403;SDS011;33157;51.508;4.288;2024-02-21T20:46:47;9.27;;;7.15;;
47403;SDS011;33157;51.508;4.288;2024-02-21T20:51:47;11.05;;;7.22;;
47403;SDS011;33157;51.508;4.288;2024-02-21T20:56:54;9.30;;;7.25;;
47403;SDS011;33157;51.508;4.288;2024-02-21T21:01:55;8.88;;;7.72;;
47403;SDS011;33157;51.508;4.288;2024-02-21T21:06:55;9.50;;;7.45;;
47403;SDS011;33157;51.508;4.288;2024-02-21T21:11:56;8.43;;;7.53;;
47403;SDS011;33157;51.508;4.288;2024-02-21T21:16:57;11.68;;;7.57;;
47403;SDS011;33157;51.508;4.288;2024-02-21T21:21:57;10.90;;;7.82;;
47403;SDS011;33157;51.508;4.288;2024-02-21T21:26:58;9.55;;;8.23;;
47403;SDS011;33157;51.508;4.288;2024-02-21T21:31:59;12.40;;;9.32;;
47403;SDS011;33157;51.508;4.288;2024-02-21T21:37:00;9.80;;;8.77;;
47403;SDS011;33157;51.508;4.288;2024-02-21T21:42:01;12.75;;;9.95;;
47403;SDS011;33157;51.508;4.288;2024-02-21T21:47:01;12.63;;;10.48;;
47403;SDS011;33157;51.508;4.288;2024-02-21T21:52:02;11.73;;;9.77;;
47403;SDS011;33157;51.508;4.288;2024-02-21T21:57:03;13.85;;;11.07;;
47403;SDS011;33157;51.508;4.288;2024-02-21T22:02:04;11.90;;;10.18;;
47403;SDS011;33157;51.508;4.288;2024-02-21T22:07:05;13.90;;;11.38;;
47403;SDS011;33157;51.508;4.288;2024-02-21T22:12:06;13.73;;;12.00;;
47403;SDS011;33157;51.508;4.288;2024-02-21T22:17:13;14.90;;;12.73;;
47403;SDS011;33157;51.508;4.288;2024-02-21T22:22:13;17.23;;;13.77;;
47403;SDS011;33157;51.508;4.288;2024-02-21T22:27:13;13.27;;;11.98;;
47403;SDS011;33157;51.508;4.288;2024-02-21T22:32:14;15.80;;;13.05;;
47403;SDS011;33157;51.508;4.288;2024-02-21T22:37:14;18.83;;;14.70;;
47403;SDS011;33157;51.508;4.288;2024-02-21T22:42:15;21.75;;;15.65;;
47403;SDS011;33157;51.508;4.288;2024-02-21T22:47:15;18.20;;;16.30;;
47403;SDS011;33157;51.508;4.288;2024-02-21T22:52:16;19.77;;;16.50;;
47403;SDS011;33157;51.508;4.288;2024-02-21T22:57:17;20.73;;;17.75;;
47403;SDS011;33157;51.508;4.288;2024-02-21T23:02:17;22.35;;;18.48;;
47403;SDS011;33157;51.508;4.288;2024-02-21T23:07:17;22.83;;;17.40;;
47403;SDS011;33157;51.508;4.288;2024-02-21T23:12:18;22.90;;;18.27;;
47403;SDS011;33157;51.508;4.288;2024-02-21T23:17:20;21.50;;;18.23;;
47403;SDS011;33157;51.508;4.288;2024-02-21T23:22:21;21.08;;;18.85;;
47403;SDS011;33157;51.508;4.288;2024-02-21T23:27:22;25.05;;;21.23;;
47403;SDS011;33157;51.508;4.288;2024-02-21T23:32:22;25.67;;;21.93;;
47403;SDS011;33157;51.508;4.288;2024-02-21T23:37:24;23.23;;;20.65;;
47403;SDS011;33157;51.508;4.288;2024-02-21T23:42:24;22.33;;;19.55;;
47403;SDS011;33157;51.508;4.288;2024-02-21T23:47:25;26.52;;;19.55;;
47403;SDS011;33157;51.508;4.288;2024-02-21T23:52:25;23.13;;;19.67;;
47403;SDS011;33157;51.508;4.288;2024-02-21T23:57:25;22.65;;;20.15;;
